sensor_id;sensor_type;location;lat;lon;timestamp;pressure;altitude;pressure_sealevel;temperature;humidity
76726;BME280;65651;53.154;17.916;2023-02-24T00:02:00;100103.88;;;5.23;81.27
76726;BME280;65651;53.154;17.916;2023-02-24T00:04:35;100098.42;;;5.23;81.34
76726;BME280;65651;53.154;17.916;2023-02-24T00:07:05;100098.65;;;5.22;81.50
76726;BME280;65651;53.154;17.916;2023-02-24T00:09:33;100099.08;;;5.21;81.44
76726;BME280;65651;53.154;17.916;2023-02-24T00:12:11;100091.95;;;5.19;81.68
76726;BME280;65651;53.154;17.916;2023-02-24T00:14:42;100092.48;;;5.17;81.56
76726;BME280;65651;53.154;17.916;2023-02-24T00:17:11;100086.79;;;5.17;81.54
76726;BME280;65651;53.154;17.916;2023-02-24T00:19:42;100089.66;;;5.19;81.64
76726;BME280;65651;53.154;17.916;2023-02-24T00:22:12;100091.98;;;5.21;81.59
76726;BME280;65651;53.154;17.916;2023-02-24T00:24:42;100085.94;;;5.21;81.58
76726;BME280;65651;53.154;17.916;2023-02-24T00:27:09;100083.94;;;5.22;81.67
76726;BME280;65651;53.154;17.916;2023-02-24T00:29:38;100078.09;;;5.21;81.73
76726;BME280;65651;53.154;17.916;2023-02-24T00:32:08;100078.37;;;5.22;81.66
76726;BME280;65651;53.154;17.916;2023-02-24T00:34:38;100076.30;;;5.24;81.84
76726;BME280;65651;53.154;17.916;2023-02-24T00:37:06;100072.71;;;5.26;81.88
76726;BME280;65651;53.154;17.916;2023-02-24T00:39:35;100070.23;;;5.28;81.89
76726;BME280;65651;53.154;17.916;2023-02-24T00:42:04;100066.98;;;5.29;81.80
76726;BME280;65651;53.154;17.916;2023-02-24T00:44:34;100067.20;;;5.28;82.01
76726;BME280;65651;53.154;17.916;2023-02-24T00:47:04;100061.18;;;5.28;82.19
76726;BME280;65651;53.154;17.916;2023-02-24T00:49:34;100060.02;;;5.27;82.21
76726;BME280;65651;53.154;17.916;2023-02-24T00:52:20;100059.88;;;5.26;82.26
76726;BME280;65651;53.154;17.916;2023-02-24T00:54:48;100056.35;;;5.26;82.16
76726;BME280;65651;53.154;17.916;2023-02-24T00:57:18;100056.95;;;5.27;82.06
76726;BME280;65651;53.154;17.916;2023-02-24T00:59:50;100051.65;;;5.29;82.14
76726;BME280;65651;53.154;17.916;2023-02-24T01:02:20;100052.61;;;5.28;82.22
76726;BME280;65651;53.154;17.916;2023-02-24T01:04:51;100047.94;;;5.29;82.39
76726;BME280;65651;53.154;17.916;2023-02-24T01:07:18;100047.11;;;5.28;82.13
76726;BME280;65651;53.154;17.916;2023-02-24T01:09:49;100047.69;;;5.27;82.37
76726;BME280;65651;53.154;17.916;2023-02-24T01:12:17;100044.88;;;5.29;82.40
76726;BME280;65651;53.154;17.916;2023-02-24T01:15:06;100041.86;;;5.31;82.38
76726;BME280;65651;53.154;17.916;2023-02-24T01:17:36;100040.45;;;5.31;82.35
76726;BME280;65651;53.154;17.916;2023-02-24T01:20:08;100037.27;;;5.30;82.30
76726;BME280;65651;53.154;17.916;2023-02-24T01:22:50;100034.99;;;5.30;82.49
76726;BME280;65651;53.154;17.916;2023-02-24T01:25:19;100030.88;;;5.28;82.52
76726;BME280;65651;53.154;17.916;2023-02-24T01:27:47;100030.51;;;5.26;82.56
76726;BME280;65651;53.154;17.916;2023-02-24T01:30:15;100028.67;;;5.25;82.52
76726;BME280;65651;53.154;17.916;2023-02-24T01:32:44;100024.33;;;5.24;82.75
76726;BME280;65651;53.154;17.916;2023-02-24T01:35:12;100021.85;;;5.21;82.67
76726;BME280;65651;53.154;17.916;2023-02-24T01:37:40;100020.30;;;5.21;82.82
76726;BME280;65651;53.154;17.916;2023-02-24T01:40:11;100016.44;;;5.20;82.79
76726;BME280;65651;53.154;17.916;2023-02-24T01:42:44;100015.17;;;5.18;82.80
76726;BME280;65651;53.154;17.916;2023-02-24T01:45:17;100015.27;;;5.17;82.81
76726;BME280;65651;53.154;17.916;2023-02-24T01:47:50;100012.67;;;5.16;83.04
76726;BME280;65651;53.154;17.916;2023-02-24T01:50:21;100008.24;;;5.16;82.75
76726;BME280;65651;53.154;17.916;2023-02-24T01:52:53;100005.52;;;5.17;82.80
76726;BME280;65651;53.154;17.916;2023-02-24T01:55:29;99999.29;;;5.17;82.94
76726;BME280;65651;53.154;17.916;2023-02-24T01:58:01;99995.36;;;5.15;82.92
76726;BME280;65651;53.154;17.916;2023-02-24T02:00:31;99989.28;;;5.15;82.95
76726;BME280;65651;53.154;17.916;2023-02-24T02:03:18;99987.06;;;5.16;83.06
76726;BME280;65651;53.154;17.916;2023-02-24T02:05:47;99988.64;;;5.17;83.01
76726;BME280;65651;53.154;17.916;2023-02-24T02:08:16;99986.23;;;5.15;82.92
76726;BME280;65651;53.154;17.916;2023-02-24T02:10:45;99982.00;;;5.12;83.06
76726;BME280;65651;53.154;17.916;2023-02-24T02:13:16;99976.52;;;5.12;83.05
76726;BME280;65651;53.154;17.916;2023-02-24T02:18:41;99975.68;;;5.09;83.23
76726;BME280;65651;53.154;17.916;2023-02-24T02:24:17;99968.77;;;5.09;83.25
76726;BME280;65651;53.154;17.916;2023-02-24T02:35:49;99963.96;;;5.07;83.60
76726;BME280;65651;53.154;17.916;2023-02-24T02:38:38;99961.00;;;5.08;83.51
76726;BME280;65651;53.154;17.916;2023-02-24T02:49:28;99952.73;;;5.07;83.77
76726;BME280;65651;53.154;17.916;2023-02-24T02:51:54;99959.13;;;5.07;83.71
76726;BME280;65651;53.154;17.916;2023-02-24T02:57:13;99950.66;;;5.11;83.83
76726;BME280;65651;53.154;17.916;2023-02-24T02:59:49;99946.73;;;5.09;83.87
76726;BME280;65651;53.154;17.916;2023-02-24T03:02:22;99941.98;;;5.08;83.74
76726;BME280;65651;53.154;17.916;2023-02-24T03:04:59;99940.45;;;5.07;83.95
76726;BME280;65651;53.154;17.916;2023-02-24T03:07:31;99938.27;;;5.06;83.86
76726;BME280;65651;53.154;17.916;2023-02-24T03:10:06;99935.45;;;5.06;83.86
76726;BME280;65651;53.154;17.916;2023-02-24T03:12:51;99933.95;;;5.04;83.98
76726;BME280;65651;53.154;17.916;2023-02-24T03:15:21;99927.73;;;5.04;83.88
76726;BME280;65651;53.154;17.916;2023-02-24T03:17:56;99926.19;;;5.04;84.13
76726;BME280;65651;53.154;17.916;2023-02-24T03:20:33;99924.45;;;5.03;84.07
76726;BME280;65651;53.154;17.916;2023-02-24T03:23:10;99921.59;;;5.03;83.97
76726;BME280;65651;53.154;17.916;2023-02-24T03:26:01;99921.73;;;5.04;83.92
76726;BME280;65651;53.154;17.916;2023-02-24T03:28:37;99919.55;;;5.04;84.00
76726;BME280;65651;53.154;17.916;2023-02-24T03:31:09;99920.84;;;5.04;84.23
76726;BME280;65651;53.154;17.916;2023-02-24T03:33:56;99920.23;;;5.05;84.05
76726;BME280;65651;53.154;17.916;2023-02-24T03:36:27;99916.14;;;5.05;84.02
76726;BME280;65651;53.154;17.916;2023-02-24T03:38:56;99915.23;;;5.05;84.17
76726;BME280;65651;53.154;17.916;2023-02-24T03:41:42;99908.83;;;5.05;84.24
76726;BME280;65651;53.154;17.916;2023-02-24T03:44:12;99904.65;;;5.06;84.20
76726;BME280;65651;53.154;17.916;2023-02-24T03:46:42;99909.95;;;5.08;84.08
76726;BME280;65651;53.154;17.916;2023-02-24T03:49:14;99899.82;;;5.06;84.17
76726;BME280;65651;53.154;17.916;2023-02-24T03:52:12;99902.17;;;5.06;84.21
76726;BME280;65651;53.154;17.916;2023-02-24T04:03:27;99894.09;;;5.06;84.12
76726;BME280;65651;53.154;17.916;2023-02-24T04:06:51;99890.80;;;5.06;84.21
76726;BME280;65651;53.154;17.916;2023-02-24T04:14:37;99883.15;;;5.01;84.21
76726;BME280;65651;53.154;17.916;2023-02-24T04:19:48;99879.46;;;5.01;84.19
76726;BME280;65651;53.154;17.916;2023-02-24T04:22:19;99873.52;;;5.02;84.22
76726;BME280;65651;53.154;17.916;2023-02-24T04:24:54;99872.90;;;5.03;84.16
76726;BME280;65651;53.154;17.916;2023-02-24T04:27:25;99869.36;;;5.02;84.10
76726;BME280;65651;53.154;17.916;2023-02-24T04:29:57;99863.17;;;5.02;84.11
76726;BME280;65651;53.154;17.916;2023-02-24T04:32:29;99860.83;;;5.02;84.13
76726;BME280;65651;53.154;17.916;2023-02-24T04:35:05;99862.70;;;5.01;84.23
76726;BME280;65651;53.154;17.916;2023-02-24T04:37:35;99857.46;;;4.98;84.24
76726;BME280;65651;53.154;17.916;2023-02-24T04:40:05;99856.79;;;4.96;84.21
76726;BME280;65651;53.154;17.916;2023-02-24T04:42:39;99855.19;;;4.94;84.24
76726;BME280;65651;53.154;17.916;2023-02-24T04:47:47;99853.83;;;4.91;84.26
76726;BME280;65651;53.154;17.916;2023-02-24T04:50:28;99848.65;;;4.91;84.28
76726;BME280;65651;53.154;17.916;2023-02-24T04:53:04;99836.77;;;4.90;84.37
76726;BME280;65651;53.154;17.916;2023-02-24T04:55:38;99838.24;;;4.92;84.34
76726;BME280;65651;53.154;17.916;2023-02-24T04:58:11;99837.59;;;4.92;84.43
76726;BME280;65651;53.154;17.916;2023-02-24T05:00:39;99834.63;;;4.91;84.53
76726;BME280;65651;53.154;17.916;2023-02-24T05:03:10;99830.70;;;4.91;84.42
76726;BME280;65651;53.154;17.916;2023-02-24T05:05:38;99827.83;;;4.92;84.47
76726;BME280;65651;53.154;17.916;2023-02-24T05:08:09;99828.00;;;4.93;84.44
76726;BME280;65651;53.154;17.916;2023-02-24T05:10:42;99818.99;;;4.95;84.36
76726;BME280;65651;53.154;17.916;2023-02-24T05:13:16;99820.39;;;4.97;84.49
76726;BME280;65651;53.154;17.916;2023-02-24T05:15:46;99818.10;;;4.97;84.41
76726;BME280;65651;53.154;17.916;2023-02-24T05:18:17;99815.20;;;4.98;84.54
76726;BME280;65651;53.154;17.916;2023-02-24T05:20:47;99811.39;;;5.01;84.53
76726;BME280;65651;53.154;17.916;2023-02-24T05:23:38;99809.60;;;5.02;84.44
76726;BME280;65651;53.154;17.916;2023-02-24T05:26:07;99809.02;;;5.03;84.60
76726;BME280;65651;53.154;17.916;2023-02-24T05:28:39;99805.78;;;5.04;84.48
76726;BME280;65651;53.154;17.916;2023-02-24T05:31:15;99806.63;;;5.02;84.50
76726;BME280;65651;53.154;17.916;2023-02-24T05:33:46;99804.73;;;4.99;84.51
76726;BME280;65651;53.154;17.916;2023-02-24T05:36:16;99802.29;;;4.99;84.64
76726;BME280;65651;53.154;17.916;2023-02-24T05:38:46;99801.65;;;5.02;84.57
76726;BME280;65651;53.154;17.916;2023-02-24T05:41:17;99802.78;;;5.05;84.65
76726;BME280;65651;53.154;17.916;2023-02-24T05:43:53;99801.23;;;5.09;84.59
76726;BME280;65651;53.154;17.916;2023-02-24T05:46:27;99802.34;;;5.10;84.64
76726;BME280;65651;53.154;17.916;2023-02-24T05:48:55;99801.46;;;5.08;84.61
76726;BME280;65651;53.154;17.916;2023-02-24T05:51:30;99799.69;;;5.04;84.72
76726;BME280;65651;53.154;17.916;2023-02-24T05:54:02;99806.21;;;5.03;84.85
76726;BME280;65651;53.154;17.916;2023-02-24T05:56:31;99804.88;;;5.00;84.88
76726;BME280;65651;53.154;17.916;2023-02-24T05:59:01;99807.77;;;4.99;84.88
76726;BME280;65651;53.154;17.916;2023-02-24T06:01:32;99809.62;;;4.98;84.97
76726;BME280;65651;53.154;17.916;2023-02-24T06:04:03;99811.45;;;4.96;84.90
76726;BME280;65651;53.154;17.916;2023-02-24T06:06:37;99812.05;;;4.91;84.91
76726;BME280;65651;53.154;17.916;2023-02-24T06:09:10;99808.25;;;4.81;84.79
76726;BME280;65651;53.154;17.916;2023-02-24T06:11:41;99806.39;;;4.71;84.79
76726;BME280;65651;53.154;17.916;2023-02-24T06:14:10;99807.73;;;4.64;84.82
76726;BME280;65651;53.154;17.916;2023-02-24T06:16:40;99804.63;;;4.56;84.74
76726;BME280;65651;53.154;17.916;2023-02-24T06:19:10;99799.13;;;4.49;84.69
76726;BME280;65651;53.154;17.916;2023-02-24T06:21:40;99794.89;;;4.45;84.88
76726;BME280;65651;53.154;17.916;2023-02-24T06:24:12;99798.87;;;4.42;84.86
76726;BME280;65651;53.154;17.916;2023-02-24T06:26:41;99795.28;;;4.40;84.78
76726;BME280;65651;53.154;17.916;2023-02-24T06:29:13;99792.69;;;4.38;85.02
76726;BME280;65651;53.154;17.916;2023-02-24T06:31:42;99792.28;;;4.34;84.88
76726;BME280;65651;53.154;17.916;2023-02-24T06:34:11;99793.28;;;4.32;84.74
76726;BME280;65651;53.154;17.916;2023-02-24T06:36:44;99793.00;;;4.31;84.75
76726;BME280;65651;53.154;17.916;2023-02-24T06:39:13;99793.64;;;4.32;84.70
76726;BME280;65651;53.154;17.916;2023-02-24T06:41:40;99794.41;;;4.34;84.88
76726;BME280;65651;53.154;17.916;2023-02-24T06:44:08;99788.86;;;4.36;84.80
76726;BME280;65651;53.154;17.916;2023-02-24T06:46:36;99790.63;;;4.39;84.74
76726;BME280;65651;53.154;17.916;2023-02-24T06:49:04;99788.51;;;4.39;84.86
76726;BME280;65651;53.154;17.916;2023-02-24T06:51:34;99786.91;;;4.39;84.70
76726;BME280;65651;53.154;17.916;2023-02-24T06:54:01;99783.23;;;4.40;84.86
76726;BME280;65651;53.154;17.916;2023-02-24T06:56:28;99781.56;;;4.41;84.83
76726;BME280;65651;53.154;17.916;2023-02-24T06:58:56;99781.30;;;4.42;84.62
76726;BME280;65651;53.154;17.916;2023-02-24T07:01:26;99782.80;;;4.37;84.85
76726;BME280;65651;53.154;17.916;2023-02-24T07:03:57;99778.42;;;4.34;84.76
76726;BME280;65651;53.154;17.916;2023-02-24T07:06:33;99776.52;;;4.31;84.62
76726;BME280;65651;53.154;17.916;2023-02-24T07:09:06;99778.11;;;4.28;84.78
76726;BME280;65651;53.154;17.916;2023-02-24T07:11:35;99780.13;;;4.24;84.60
76726;BME280;65651;53.154;17.916;2023-02-24T07:14:03;99782.74;;;4.18;84.77
76726;BME280;65651;53.154;17.916;2023-02-24T07:16:34;99788.38;;;4.14;84.56
76726;BME280;65651;53.154;17.916;2023-02-24T07:19:06;99789.69;;;4.09;84.68
76726;BME280;65651;53.154;17.916;2023-02-24T07:21:38;99788.19;;;4.01;84.58
76726;BME280;65651;53.154;17.916;2023-02-24T07:24:07;99791.39;;;3.95;84.62
76726;BME280;65651;53.154;17.916;2023-02-24T07:26:34;99791.77;;;3.90;84.16
76726;BME280;65651;53.154;17.916;2023-02-24T07:29:10;99793.25;;;3.85;84.33
76726;BME280;65651;53.154;17.916;2023-02-24T07:31:43;99796.77;;;3.81;84.29
76726;BME280;65651;53.154;17.916;2023-02-24T07:34:10;99796.63;;;3.76;84.11
76726;BME280;65651;53.154;17.916;2023-02-24T11:57:48;99494.55;;;4.07;73.11
76726;BME280;65651;53.154;17.916;2023-02-24T12:00:19;99488.31;;;4.18;72.24
76726;BME280;65651;53.154;17.916;2023-02-24T12:03:16;99482.64;;;4.22;72.04
76726;BME280;65651;53.154;17.916;2023-02-24T12:05:45;99477.96;;;4.28;72.36
76726;BME280;65651;53.154;17.916;2023-02-24T12:08:35;99474.80;;;4.25;71.80
76726;BME280;65651;53.154;17.916;2023-02-24T12:14:18;99474.33;;;4.11;71.58
76726;BME280;65651;53.154;17.916;2023-02-24T12:16:54;99470.33;;;4.02;71.59
76726;BME280;65651;53.154;17.916;2023-02-24T12:19:33;99467.15;;;3.99;71.62
76726;BME280;65651;53.154;17.916;2023-02-24T12:22:10;99470.77;;;3.91;70.76
76726;BME280;65651;53.154;17.916;2023-02-24T12:24:45;99460.52;;;3.82;71.01
76726;BME280;65651;53.154;17.916;2023-02-24T12:27:29;99457.91;;;3.87;71.20
76726;BME280;65651;53.154;17.916;2023-02-24T12:30:18;99454.92;;;3.89;70.43
76726;BME280;65651;53.154;17.916;2023-02-24T12:36:01;99447.73;;;3.75;70.89
76726;BME280;65651;53.154;17.916;2023-02-24T12:38:40;99440.35;;;3.79;71.05
76726;BME280;65651;53.154;17.916;2023-02-24T12:41:27;99440.99;;;3.80;70.89
76726;BME280;65651;53.154;17.916;2023-02-24T12:47:05;99431.21;;;3.80;70.51
76726;BME280;65651;53.154;17.916;2023-02-24T12:55:49;99413.16;;;3.83;70.09
76726;BME280;65651;53.154;17.916;2023-02-24T12:58:24;99408.56;;;3.85;70.00
76726;BME280;65651;53.154;17.916;2023-02-24T13:15:22;99394.56;;;3.93;69.40
76726;BME280;65651;53.154;17.916;2023-02-24T13:17:53;99382.78;;;3.90;69.48
76726;BME280;65651;53.154;17.916;2023-02-24T13:20:33;99374.85;;;3.89;69.73
76726;BME280;65651;53.154;17.916;2023-02-24T13:23:19;99372.25;;;3.88;69.50
76726;BME280;65651;53.154;17.916;2023-02-24T13:25:52;99369.55;;;3.85;69.76
76726;BME280;65651;53.154;17.916;2023-02-24T13:28:30;99359.48;;;3.83;69.69
76726;BME280;65651;53.154;17.916;2023-02-24T13:31:02;99358.02;;;3.78;69.67
76726;BME280;65651;53.154;17.916;2023-02-24T13:36:18;99358.66;;;3.84;69.75
76726;BME280;65651;53.154;17.916;2023-02-24T13:38:50;99356.73;;;3.85;69.70
76726;BME280;65651;53.154;17.916;2023-02-24T13:41:36;99354.31;;;3.86;69.49
76726;BME280;65651;53.154;17.916;2023-02-24T13:44:23;99349.35;;;3.86;69.77
76726;BME280;65651;53.154;17.916;2023-02-24T14:03:28;99323.40;;;3.83;69.55
76726;BME280;65651;53.154;17.916;2023-02-24T14:05:56;99315.55;;;3.87;69.25
76726;BME280;65651;53.154;17.916;2023-02-24T14:10:59;99303.52;;;3.89;68.88
76726;BME280;65651;53.154;17.916;2023-02-24T14:13:31;99301.02;;;3.91;68.98
76726;BME280;65651;53.154;17.916;2023-02-24T14:16:05;99298.83;;;3.94;68.94
76726;BME280;65651;53.154;17.916;2023-02-24T14:18:33;99296.64;;;3.98;69.21
76726;BME280;65651;53.154;17.916;2023-02-24T14:21:02;99292.49;;;4.05;69.11
76726;BME280;65651;53.154;17.916;2023-02-24T14:23:33;99290.50;;;4.11;69.10
76726;BME280;65651;53.154;17.916;2023-02-24T14:26:07;99286.00;;;4.18;68.67
76726;BME280;65651;53.154;17.916;2023-02-24T14:28:39;99284.19;;;4.18;68.17
76726;BME280;65651;53.154;17.916;2023-02-24T14:31:12;99277.75;;;4.17;68.24
76726;BME280;65651;53.154;17.916;2023-02-24T14:33:42;99276.35;;;4.17;67.93
76726;BME280;65651;53.154;17.916;2023-02-24T14:36:19;99270.19;;;4.12;67.53
76726;BME280;65651;53.154;17.916;2023-02-24T14:39:00;99268.39;;;4.07;67.78
76726;BME280;65651;53.154;17.916;2023-02-24T14:41:28;99265.45;;;4.06;67.95
76726;BME280;65651;53.154;17.916;2023-02-24T14:43:56;99266.41;;;4.03;67.52
76726;BME280;65651;53.154;17.916;2023-02-24T14:46:23;99263.88;;;3.97;67.06
76726;BME280;65651;53.154;17.916;2023-02-24T14:48:53;99259.63;;;3.93;67.18
76726;BME280;65651;53.154;17.916;2023-02-24T14:51:25;99257.95;;;3.88;67.15
76726;BME280;65651;53.154;17.916;2023-02-24T14:53:58;99257.85;;;3.85;67.04
76726;BME280;65651;53.154;17.916;2023-02-24T14:56:31;99249.75;;;3.81;67.05
76726;BME280;65651;53.154;17.916;2023-02-24T14:59:28;99249.20;;;3.77;66.79
76726;BME280;65651;53.154;17.916;2023-02-24T15:01:56;99243.72;;;3.72;67.00
76726;BME280;65651;53.154;17.916;2023-02-24T15:06:54;99231.85;;;3.66;66.83
76726;BME280;65651;53.154;17.916;2023-02-24T15:09:25;99225.27;;;3.65;66.85
76726;BME280;65651;53.154;17.916;2023-02-24T15:11:53;99218.80;;;3.64;66.77
76726;BME280;65651;53.154;17.916;2023-02-24T15:14:30;99217.16;;;3.62;66.84
76726;BME280;65651;53.154;17.916;2023-02-24T15:17:10;99214.44;;;3.61;66.82
76726;BME280;65651;53.154;17.916;2023-02-24T15:19:42;99206.39;;;3.62;66.79
76726;BME280;65651;53.154;17.916;2023-02-24T15:24:48;99197.45;;;3.64;66.91
76726;BME280;65651;53.154;17.916;2023-02-24T15:29:44;99193.81;;;3.63;66.78
76726;BME280;65651;53.154;17.916;2023-02-24T15:32:24;99189.44;;;3.63;66.94
76726;BME280;65651;53.154;17.916;2023-02-24T15:34:52;99190.05;;;3.62;66.70
76726;BME280;65651;53.154;17.916;2023-02-24T15:37:36;99186.77;;;3.57;66.78
76726;BME280;65651;53.154;17.916;2023-02-24T15:40:26;99184.92;;;3.52;66.51
76726;BME280;65651;53.154;17.916;2023-02-24T15:43:07;99179.98;;;3.45;66.54
76726;BME280;65651;53.154;17.916;2023-02-24T15:45:37;99178.50;;;3.38;66.80
76726;BME280;65651;53.154;17.916;2023-02-24T15:48:22;99176.00;;;3.32;67.02
76726;BME280;65651;53.154;17.916;2023-02-24T15:50:53;99166.91;;;3.27;66.90
76726;BME280;65651;53.154;17.916;2023-02-24T15:53:21;99167.27;;;3.22;66.81
76726;BME280;65651;53.154;17.916;2023-02-24T15:55:49;99162.81;;;3.19;67.14
76726;BME280;65651;53.154;17.916;2023-02-24T15:58:19;99165.89;;;3.16;66.94
76726;BME280;65651;53.154;17.916;2023-02-24T16:00:48;99164.44;;;3.15;66.97
76726;BME280;65651;53.154;17.916;2023-02-24T16:03:18;99163.84;;;3.13;66.93
76726;BME280;65651;53.154;17.916;2023-02-24T16:05:45;99162.42;;;3.11;67.28
76726;BME280;65651;53.154;17.916;2023-02-24T16:08:16;99159.27;;;3.09;67.37
76726;BME280;65651;53.154;17.916;2023-02-24T16:10:47;99160.53;;;3.06;67.00
76726;BME280;65651;53.154;17.916;2023-02-24T16:13:20;99156.02;;;3.04;67.41
76726;BME280;65651;53.154;17.916;2023-02-24T16:15:50;99157.39;;;3.02;67.03
76726;BME280;65651;53.154;17.916;2023-02-24T16:18:21;99153.33;;;3.02;66.90
76726;BME280;65651;53.154;17.916;2023-02-24T16:20:50;99146.41;;;3.02;67.05
76726;BME280;65651;53.154;17.916;2023-02-24T16:23:21;99146.64;;;3.02;67.36
76726;BME280;65651;53.154;17.916;2023-02-24T16:25:53;99139.05;;;3.01;67.41
76726;BME280;65651;53.154;17.916;2023-02-24T16:28:22;99134.50;;;3.00;67.38
76726;BME280;65651;53.154;17.916;2023-02-24T16:30:50;99134.53;;;3.00;67.15
76726;BME280;65651;53.154;17.916;2023-02-24T16:33:19;99132.23;;;3.00;67.31
76726;BME280;65651;53.154;17.916;2023-02-24T16:35:49;99126.97;;;2.99;67.43
76726;BME280;65651;53.154;17.916;2023-02-24T16:38:21;99128.03;;;2.99;67.20
76726;BME280;65651;53.154;17.916;2023-02-24T16:40:48;99117.70;;;3.00;67.34
76726;BME280;65651;53.154;17.916;2023-02-24T16:43:16;99114.48;;;3.00;67.36
76726;BME280;65651;53.154;17.916;2023-02-24T16:45:44;99108.48;;;3.00;67.41
76726;BME280;65651;53.154;17.916;2023-02-24T16:48:24;99107.69;;;2.99;67.64
76726;BME280;65651;53.154;17.916;2023-02-24T16:50:53;99105.87;;;2.97;67.54
76726;BME280;65651;53.154;17.916;2023-02-24T16:53:22;99100.83;;;2.96;67.49
76726;BME280;65651;53.154;17.916;2023-02-24T16:55:49;99097.20;;;2.97;67.38
76726;BME280;65651;53.154;17.916;2023-02-24T16:58:17;99092.61;;;2.97;67.63
76726;BME280;65651;53.154;17.916;2023-02-24T17:00:47;99091.66;;;2.98;67.34
76726;BME280;65651;53.154;17.916;2023-02-24T17:03:19;99086.56;;;2.97;67.21
76726;BME280;65651;53.154;17.916;2023-02-24T17:05:47;99080.73;;;2.97;67.44
76726;BME280;65651;53.154;17.916;2023-02-24T17:08:16;99079.54;;;2.96;67.35
76726;BME280;65651;53.154;17.916;2023-02-24T17:10:44;99079.78;;;2.95;67.50
76726;BME280;65651;53.154;17.916;2023-02-24T17:13:14;99078.05;;;2.95;67.43
76726;BME280;65651;53.154;17.916;2023-02-24T17:15:42;99077.86;;;2.95;67.67
76726;BME280;65651;53.154;17.916;2023-02-24T17:18:10;99077.44;;;2.96;67.79
76726;BME280;65651;53.154;17.916;2023-02-24T17:20:39;99075.98;;;2.96;67.39
76726;BME280;65651;53.154;17.916;2023-02-24T17:23:10;99071.90;;;2.96;67.63
76726;BME280;65651;53.154;17.916;2023-02-24T17:25:38;99065.46;;;2.97;68.01
76726;BME280;65651;53.154;17.916;2023-02-24T17:28:06;99059.05;;;2.98;67.91
76726;BME280;65651;53.154;17.916;2023-02-24T17:30:34;99053.37;;;2.98;67.98
76726;BME280;65651;53.154;17.916;2023-02-24T17:33:04;99051.05;;;2.98;68.02
76726;BME280;65651;53.154;17.916;2023-02-24T17:35:33;99050.41;;;2.99;68.08
76726;BME280;65651;53.154;17.916;2023-02-24T17:38:00;99050.70;;;3.00;68.19
76726;BME280;65651;53.154;17.916;2023-02-24T17:40:28;99047.81;;;2.98;68.02
76726;BME280;65651;53.154;17.916;2023-02-24T17:42:56;99049.67;;;2.99;68.07
76726;BME280;65651;53.154;17.916;2023-02-24T17:45:23;99045.33;;;3.01;68.14
76726;BME280;65651;53.154;17.916;2023-02-24T17:47:50;99039.59;;;3.01;67.97
76726;BME280;65651;53.154;17.916;2023-02-24T17:50:20;99037.64;;;3.02;68.21
76726;BME280;65651;53.154;17.916;2023-02-24T17:52:48;99037.41;;;3.02;68.14
76726;BME280;65651;53.154;17.916;2023-02-24T17:55:15;99029.72;;;3.03;68.39
76726;BME280;65651;53.154;17.916;2023-02-24T17:57:43;99025.85;;;3.02;68.12
76726;BME280;65651;53.154;17.916;2023-02-24T18:00:12;99022.99;;;3.02;68.28
76726;BME280;65651;53.154;17.916;2023-02-24T18:02:41;99025.23;;;3.03;68.35
76726;BME280;65651;53.154;17.916;2023-02-24T18:05:09;99017.45;;;3.03;68.36
76726;BME280;65651;53.154;17.916;2023-02-24T18:07:36;99018.93;;;3.04;68.50
76726;BME280;65651;53.154;17.916;2023-02-24T18:10:04;99015.35;;;3.05;68.56
76726;BME280;65651;53.154;17.916;2023-02-24T18:12:32;99010.65;;;3.04;68.32
76726;BME280;65651;53.154;17.916;2023-02-24T18:14:59;99009.79;;;3.04;68.31
76726;BME280;65651;53.154;17.916;2023-02-24T18:17:28;99004.86;;;3.03;68.50
76726;BME280;65651;53.154;17.916;2023-02-24T18:19:56;99000.16;;;3.02;68.57
76726;BME280;65651;53.154;17.916;2023-02-24T18:22:23;99002.54;;;3.03;68.66
76726;BME280;65651;53.154;17.916;2023-02-24T18:24:51;99000.08;;;3.03;68.79
76726;BME280;65651;53.154;17.916;2023-02-24T18:27:18;98998.36;;;3.02;68.61
76726;BME280;65651;53.154;17.916;2023-02-24T18:29:46;98995.04;;;3.02;68.87
76726;BME280;65651;53.154;17.916;2023-02-24T18:32:14;98998.56;;;3.02;69.18
76726;BME280;65651;53.154;17.916;2023-02-24T18:34:41;98992.74;;;3.02;68.78
76726;BME280;65651;53.154;17.916;2023-02-24T18:37:09;98984.98;;;3.01;68.82
76726;BME280;65651;53.154;17.916;2023-02-24T18:39:36;98976.91;;;3.00;68.94
76726;BME280;65651;53.154;17.916;2023-02-24T18:42:04;98974.91;;;3.01;69.35
76726;BME280;65651;53.154;17.916;2023-02-24T18:44:32;98974.61;;;3.00;69.21
76726;BME280;65651;53.154;17.916;2023-02-24T18:46:59;98974.67;;;3.00;69.39
76726;BME280;65651;53.154;17.916;2023-02-24T18:49:26;98975.63;;;2.99;69.63
76726;BME280;65651;53.154;17.916;2023-02-24T18:51:54;98972.08;;;2.99;69.63
76726;BME280;65651;53.154;17.916;2023-02-24T18:54:24;98971.98;;;2.98;69.69
76726;BME280;65651;53.154;17.916;2023-02-24T18:56:51;98967.98;;;2.98;69.69
76726;BME280;65651;53.154;17.916;2023-02-24T18:59:20;98967.02;;;2.96;69.53
76726;BME280;65651;53.154;17.916;2023-02-24T19:01:47;98964.75;;;2.95;70.06
76726;BME280;65651;53.154;17.916;2023-02-24T19:04:17;98962.61;;;2.94;69.80
76726;BME280;65651;53.154;17.916;2023-02-24T19:06:44;98959.73;;;2.94;70.14
76726;BME280;65651;53.154;17.916;2023-02-24T19:09:15;98961.31;;;2.94;70.02
76726;BME280;65651;53.154;17.916;2023-02-24T19:11:47;98957.10;;;2.94;70.27
76726;BME280;65651;53.154;17.916;2023-02-24T19:14:15;98952.95;;;2.93;70.34
76726;BME280;65651;53.154;17.916;2023-02-24T19:16:43;98951.23;;;2.92;70.57
76726;BME280;65651;53.154;17.916;2023-02-24T19:19:14;98945.51;;;2.93;70.44
76726;BME280;65651;53.154;17.916;2023-02-24T19:21:42;98942.63;;;2.91;70.63
76726;BME280;65651;53.154;17.916;2023-02-24T19:24:15;98939.45;;;2.91;70.58
76726;BME280;65651;53.154;17.916;2023-02-24T19:26:43;98934.30;;;2.91;70.85
76726;BME280;65651;53.154;17.916;2023-02-24T19:29:14;98930.46;;;2.91;70.72